createdAt,value
2022-12-23T00:01:24.136Z,15.73
2022-12-23T00:04:09.402Z,16.60
2022-12-23T00:06:54.878Z,15.30
2022-12-23T00:09:40.276Z,18.27
2022-12-23T00:12:44.139Z,17.25
2022-12-23T00:15:29.608Z,18.25
2022-12-23T00:18:15.309Z,14.65
2022-12-23T00:21:08.306Z,15.77
2022-12-23T00:23:54.456Z,14.77
2022-12-23T00:26:40.072Z,16.02
2022-12-23T00:29:25.445Z,15.25
2022-12-23T00:32:10.895Z,16.95
2022-12-23T00:34:56.273Z,15.48
2022-12-23T00:37:41.939Z,16.08
2022-12-23T00:40:45.657Z,14.43
2022-12-23T00:43:30.788Z,10.02
2022-12-23T00:46:16.748Z,11.52
2022-12-23T00:49:20.632Z,11.63
2022-12-23T00:52:07.972Z,11.90
2022-12-23T00:54:53.053Z,9.90
2022-12-23T00:57:38.461Z,10.18
2022-12-23T01:00:43.861Z,10.25
2022-12-23T01:03:48.636Z,7.60
2022-12-23T01:06:33.768Z,8.20
2022-12-23T01:09:18.969Z,7.32
2022-12-23T01:12:04.587Z,8.93
2022-12-23T01:14:50.160Z,8.05
2022-12-23T01:17:35.398Z,7.25
2022-12-23T01:20:20.962Z,6.88
2022-12-23T01:23:07.058Z,8.43
2022-12-23T01:26:03.901Z,6.80
2022-12-23T01:28:52.965Z,8.18
2022-12-23T01:31:38.664Z,6.78
2022-12-23T01:34:24.370Z,7.45
2022-12-23T01:37:09.712Z,6.35
2022-12-23T01:39:55.274Z,7.25
2022-12-23T01:42:43.551Z,8.07
2022-12-23T01:45:31.030Z,9.45
2022-12-23T01:48:24.503Z,7.82
2022-12-23T01:51:15.836Z,8.05
2022-12-23T01:54:02.182Z,7.97
2022-12-23T01:56:47.429Z,8.23
2022-12-23T01:59:51.626Z,9.90
2022-12-23T02:02:56.709Z,12.55
2022-12-23T02:05:45.320Z,13.27
2022-12-23T02:08:49.299Z,8.90
2022-12-23T02:11:51.966Z,9.13
2022-12-23T02:15:25.483Z,11.90
2022-12-23T02:18:39.083Z,12.48
2022-12-23T02:21:51.982Z,11.80
2022-12-23T02:25:10.145Z,12.20
2022-12-23T02:28:14.137Z,14.65
2022-12-23T02:31:13.239Z,11.40
2022-12-23T02:34:23.778Z,13.23
2022-12-23T02:37:24.839Z,14.20
2022-12-23T02:40:14.445Z,13.60
2022-12-23T02:43:13.510Z,17.25
2022-12-23T02:46:09.634Z,14.80
2022-12-23T02:49:03.879Z,17.05
2022-12-23T02:51:52.517Z,14.75
2022-12-23T02:54:46.297Z,14.77
2022-12-23T02:57:36.233Z,14.23
2022-12-23T03:00:22.369Z,14.60
2022-12-23T03:03:07.909Z,15.57
2022-12-23T03:05:54.457Z,14.55
2022-12-23T03:08:43.314Z,14.85
2022-12-23T03:11:52.558Z,14.48
2022-12-23T03:14:50.891Z,18.10
2022-12-23T03:17:49.201Z,17.40
2022-12-23T03:20:55.236Z,17.52
2022-12-23T03:23:56.209Z,16.10
2022-12-23T03:27:07.847Z,16.50
2022-12-23T03:30:13.652Z,18.27
2022-12-23T03:33:04.366Z,18.63
2022-12-23T03:35:56.706Z,16.70
2022-12-23T03:38:44.962Z,16.33
2022-12-23T03:41:39.290Z,16.63
2022-12-23T03:44:36.181Z,15.63
2022-12-23T03:47:52.924Z,16.45
2022-12-23T03:50:41.495Z,17.60
2022-12-23T03:53:37.738Z,17.65
2022-12-23T03:56:35.282Z,15.70
2022-12-23T03:59:27.145Z,15.40
2022-12-23T04:02:53.849Z,20.02
2022-12-23T04:05:41.814Z,18.08
2022-12-23T04:08:32.541Z,20.45
2022-12-23T04:11:17.994Z,20.02
2022-12-23T04:14:03.534Z,16.38
2022-12-23T04:16:53.606Z,15.82
2022-12-23T04:19:38.928Z,16.17
2022-12-23T04:22:24.505Z,16.55
2022-12-23T04:25:11.832Z,14.95
2022-12-23T04:27:56.998Z,16.02
2022-12-23T04:30:42.605Z,17.13
2022-12-23T04:33:27.978Z,17.60
2022-12-23T04:36:13.475Z,18.45
2022-12-23T04:38:58.792Z,18.23
2022-12-23T04:41:44.191Z,19.05
2022-12-23T04:44:29.663Z,15.75
2022-12-23T04:47:15.106Z,16.67
2022-12-23T04:50:00.377Z,19.02
2022-12-23T04:52:45.714Z,19.42
2022-12-23T04:55:31.142Z,18.35
2022-12-23T04:58:16.750Z,18.45
2022-12-23T05:01:08.664Z,18.80
2022-12-23T05:03:54.158Z,17.63
2022-12-23T05:06:39.648Z,16.98
2022-12-23T05:09:25.195Z,16.40
2022-12-23T05:12:10.361Z,16.80
2022-12-23T05:14:56.070Z,18.17
2022-12-23T05:17:41.190Z,16.85
2022-12-23T05:20:26.666Z,18.98
2022-12-23T05:23:12.185Z,16.65
2022-12-23T05:25:57.509Z,17.45
2022-12-23T05:28:45.607Z,15.32
2022-12-23T05:31:31.071Z,15.90
2022-12-23T05:34:16.481Z,16.75
2022-12-23T05:37:01.994Z,16.70
2022-12-23T05:39:47.352Z,17.77
2022-12-23T05:42:33.002Z,15.85
2022-12-23T05:45:18.546Z,15.77
2022-12-23T05:48:04.153Z,15.90
2022-12-23T05:50:51.139Z,14.55
2022-12-23T05:53:36.463Z,16.77
2022-12-23T05:56:21.957Z,13.10
2022-12-23T05:59:07.345Z,14.35
2022-12-23T06:01:52.867Z,15.63
2022-12-23T06:04:38.286Z,16.13
2022-12-23T06:07:23.635Z,14.77
2022-12-23T06:10:10.610Z,15.20
2022-12-23T06:12:56.015Z,15.18
2022-12-23T06:15:41.319Z,15.77
2022-12-23T06:18:26.669Z,14.90
2022-12-23T06:21:12.070Z,14.52
2022-12-23T06:23:57.506Z,13.88
2022-12-23T06:26:42.931Z,15.40
2022-12-23T06:29:28.318Z,13.18
2022-12-23T06:32:13.749Z,13.90
2022-12-23T06:34:58.998Z,14.52
2022-12-23T06:37:44.622Z,13.75
2022-12-23T06:40:29.823Z,10.95
2022-12-23T06:43:15.342Z,11.82
2022-12-23T06:46:00.636Z,11.23
2022-12-23T06:48:46.083Z,11.00
2022-12-23T06:51:31.686Z,10.80
2022-12-23T06:54:17.074Z,12.40
2022-12-23T06:57:02.565Z,11.48
2022-12-23T06:59:47.663Z,10.18
2022-12-23T07:02:33.508Z,10.00
2022-12-23T07:05:19.144Z,9.32
2022-12-23T07:08:05.044Z,9.40
2022-12-23T07:10:50.418Z,8.57
2022-12-23T07:13:35.897Z,9.13
2022-12-23T07:16:21.465Z,9.25
2022-12-23T07:19:06.909Z,9.88
2022-12-23T07:21:52.476Z,10.63
2022-12-23T07:24:37.882Z,10.75
2022-12-23T07:27:23.321Z,11.88
2022-12-23T07:30:09.215Z,10.63
2022-12-23T07:32:54.664Z,10.45
2022-12-23T07:35:42.296Z,9.45
2022-12-23T07:38:27.449Z,10.55
2022-12-23T07:41:12.665Z,11.68
2022-12-23T07:43:58.030Z,9.52
2022-12-23T07:46:43.585Z,10.30
2022-12-23T07:49:28.988Z,12.05
2022-12-23T07:52:14.905Z,11.73
2022-12-23T07:55:00.000Z,11.15
2022-12-23T07:57:49.943Z,12.00
2022-12-23T08:00:35.012Z,9.65
2022-12-23T08:03:20.468Z,11.63
2022-12-23T08:06:12.546Z,9.70
2022-12-23T08:08:58.094Z,11.13
2022-12-23T08:11:44.316Z,11.32
2022-12-23T08:14:29.335Z,9.73
2022-12-23T08:17:15.021Z,10.95
2022-12-23T08:20:00.525Z,11.52
2022-12-23T08:22:46.154Z,10.20
2022-12-23T08:25:31.611Z,9.43
2022-12-23T08:28:17.005Z,9.23
2022-12-23T08:31:08.113Z,9.85
2022-12-23T08:33:56.000Z,9.45
2022-12-23T08:36:41.270Z,9.27
2022-12-23T08:39:27.171Z,9.88
2022-12-23T08:42:12.425Z,10.32
2022-12-23T08:44:57.733Z,9.55
2022-12-23T08:47:43.234Z,9.20
2022-12-23T08:50:28.632Z,9.32
2022-12-23T08:53:14.257Z,8.43
2022-12-23T08:56:05.724Z,9.38
2022-12-23T08:58:55.560Z,9.68
2022-12-23T09:01:41.063Z,8.63
2022-12-23T09:04:26.763Z,9.32
2022-12-23T09:07:12.273Z,8.32
2022-12-23T09:09:57.666Z,9.77
2022-12-23T09:12:43.179Z,10.07
2022-12-23T09:15:28.699Z,11.32
2022-12-23T09:18:14.266Z,10.57
2022-12-23T09:21:13.796Z,10.45
2022-12-23T09:23:59.264Z,9.48
2022-12-23T09:26:44.697Z,10.07
2022-12-23T09:29:29.963Z,9.65
2022-12-23T09:32:15.338Z,11.43
2022-12-23T09:35:00.781Z,12.75
2022-12-23T09:37:46.325Z,12.13
2022-12-23T09:40:34.570Z,13.18
2022-12-23T09:43:33.185Z,14.05
2022-12-23T09:46:22.761Z,12.90
2022-12-23T09:49:17.460Z,15.18
2022-12-23T09:52:05.321Z,15.27
2022-12-23T09:54:54.467Z,15.15
2022-12-23T09:57:56.153Z,15.98
2022-12-23T10:00:58.099Z,14.43
2022-12-23T10:04:02.440Z,13.23
2022-12-23T10:07:02.668Z,14.32
2022-12-23T10:09:51.108Z,14.73
2022-12-23T10:12:43.370Z,14.43
2022-12-23T10:15:36.244Z,13.85
2022-12-23T10:21:30.110Z,11.40
2022-12-23T10:24:20.421Z,12.15
2022-12-23T10:27:23.379Z,12.15
2022-12-23T10:30:51.402Z,11.63
2022-12-23T10:33:59.349Z,12.80
2022-12-23T10:36:58.890Z,13.93
2022-12-23T10:40:09.571Z,11.80
2022-12-23T10:43:22.771Z,14.15
2022-12-23T10:46:25.599Z,12.10
2022-12-23T10:49:40.698Z,11.60
2022-12-23T10:52:31.221Z,12.65
2022-12-23T10:55:29.785Z,10.65
2022-12-23T10:58:18.443Z,10.68
2022-12-23T11:01:12.008Z,12.00
2022-12-23T11:04:04.374Z,10.90
2022-12-23T11:07:11.093Z,11.40
2022-12-23T11:10:00.196Z,10.65
2022-12-23T11:12:49.065Z,11.40
2022-12-23T11:15:40.099Z,12.75
2022-12-23T11:18:26.434Z,14.30
2022-12-23T11:21:14.839Z,12.63
2022-12-23T11:24:16.095Z,13.60
2022-12-23T11:27:11.532Z,14.07
2022-12-23T11:29:56.878Z,14.05
2022-12-23T11:32:42.814Z,16.17
2022-12-23T11:35:35.095Z,17.27
2022-12-23T11:38:20.577Z,16.38
2022-12-23T11:41:07.249Z,21.08
2022-12-23T11:44:04.081Z,20.73
2022-12-23T11:46:50.377Z,22.75
2022-12-23T11:49:49.395Z,20.55
2022-12-23T11:52:34.970Z,19.17
2022-12-23T11:55:25.893Z,20.20
2022-12-23T11:58:21.395Z,18.02
2022-12-23T12:01:14.724Z,18.67
2022-12-23T12:04:04.033Z,16.08
2022-12-23T12:06:56.003Z,17.80
2022-12-23T12:09:43.591Z,15.93
2022-12-23T12:12:29.476Z,16.38
2022-12-23T12:15:55.166Z,16.20
2022-12-23T12:18:43.466Z,17.98
2022-12-23T12:21:32.894Z,16.40
2022-12-23T12:24:41.518Z,20.95
2022-12-23T12:27:36.698Z,18.45
2022-12-23T12:30:22.457Z,15.73
2022-12-23T12:33:30.109Z,24.38
2022-12-23T12:36:43.734Z,22.27
2022-12-23T12:39:41.213Z,20.80
2022-12-23T12:42:39.743Z,17.42
2022-12-23T12:45:37.708Z,20.45
2022-12-23T12:48:28.329Z,17.85
2022-12-23T12:51:40.161Z,20.73
2022-12-23T12:54:44.087Z,22.52
2022-12-23T12:57:31.655Z,19.42
2022-12-23T13:00:21.191Z,20.58
2022-12-23T13:03:33.242Z,23.50
2022-12-23T13:06:44.677Z,22.07
2022-12-23T13:09:46.937Z,20.75
2022-12-23T13:13:00.936Z,20.23
2022-12-23T13:16:10.993Z,21.23
2022-12-23T13:19:16.731Z,21.52
2022-12-23T13:22:16.812Z,23.83
2022-12-23T13:25:18.073Z,25.13
2022-12-23T13:28:16.272Z,27.95
2022-12-23T13:31:06.435Z,29.15
2022-12-23T13:34:18.934Z,29.02
2022-12-23T13:37:46.150Z,28.23
2022-12-23T13:40:59.745Z,31.70
2022-12-23T13:43:59.406Z,26.77
2022-12-23T13:47:12.308Z,27.52
2022-12-23T13:53:15.031Z,25.80
2022-12-23T13:56:12.284Z,28.08
2022-12-23T13:58:58.426Z,28.33
2022-12-23T14:01:47.382Z,25.02
2022-12-23T14:04:35.121Z,26.02
2022-12-23T14:07:22.888Z,25.08
2022-12-23T14:10:19.861Z,21.73
2022-12-23T14:13:08.420Z,21.45
2022-12-23T14:16:00.075Z,18.73
2022-12-23T14:19:19.364Z,16.35
2022-12-23T14:22:33.118Z,12.43
2022-12-23T14:25:59.803Z,12.98
2022-12-23T14:28:50.895Z,14.00
2022-12-23T14:31:53.727Z,18.70
2022-12-23T14:35:16.394Z,19.10
2022-12-23T14:38:07.836Z,13.20
2022-12-23T14:41:19.335Z,93.20
2022-12-23T14:44:21.648Z,12.27
2022-12-23T14:47:34.244Z,51.10
2022-12-23T14:50:41.762Z,16.92
2022-12-23T14:53:28.486Z,17.75
2022-12-23T14:56:23.446Z,27.25
2022-12-23T14:59:13.872Z,18.15
2022-12-23T15:02:02.544Z,26.80
2022-12-23T15:04:54.546Z,68.05
2022-12-23T15:07:46.132Z,28.77
2022-12-23T15:10:32.113Z,16.80
2022-12-23T15:13:19.092Z,20.02
2022-12-23T15:16:04.245Z,15.88
2022-12-23T15:18:54.812Z,18.58
2022-12-23T15:21:39.922Z,17.60
2022-12-23T15:24:25.991Z,23.48
2022-12-23T15:27:28.760Z,21.20
2022-12-23T15:30:15.804Z,21.15
2022-12-23T15:33:06.391Z,27.17
2022-12-23T15:36:04.718Z,82.93
2022-12-23T15:38:50.417Z,16.67
2022-12-23T15:41:43.711Z,14.73
2022-12-23T15:44:39.739Z,15.27
2022-12-23T15:47:31.439Z,26.05
2022-12-23T15:50:18.710Z,18.70
2022-12-23T15:53:07.273Z,17.00
2022-12-23T15:55:52.460Z,18.85
2022-12-23T15:58:41.913Z,26.95
2022-12-23T16:01:35.192Z,41.70
2022-12-23T16:04:26.254Z,24.67
2022-12-23T16:07:26.678Z,32.28
2022-12-23T16:10:16.100Z,39.33
2022-12-23T16:13:01.615Z,55.65
2022-12-23T16:15:47.382Z,37.47
2022-12-23T16:18:46.929Z,35.75
2022-12-23T16:21:36.411Z,33.72
2022-12-23T16:24:22.590Z,30.27
2022-12-23T16:27:14.080Z,39.85
2022-12-23T16:30:20.681Z,46.08
2022-12-23T16:33:22.892Z,45.40
2022-12-23T16:36:35.834Z,44.08
2022-12-23T16:39:23.241Z,32.75
2022-12-23T16:42:08.712Z,35.63
2022-12-23T16:44:54.226Z,35.05
2022-12-23T16:47:42.323Z,37.47
2022-12-23T16:50:27.989Z,35.25
2022-12-23T16:53:13.801Z,47.88
2022-12-23T16:56:01.113Z,49.10
2022-12-23T16:58:47.442Z,49.10
2022-12-23T17:01:37.432Z,39.63
2022-12-23T17:04:22.917Z,39.67
2022-12-23T17:07:14.270Z,39.17
2022-12-23T17:09:59.833Z,50.47
2022-12-23T17:12:47.118Z,38.88
2022-12-23T17:15:32.757Z,47.83
2022-12-23T17:18:18.673Z,43.53
2022-12-23T17:21:04.174Z,49.65
2022-12-23T17:23:50.851Z,43.85
2022-12-23T17:26:36.113Z,41.38
2022-12-23T17:29:21.674Z,48.78
2022-12-23T17:32:12.096Z,43.38
2022-12-23T17:34:57.665Z,41.58
2022-12-23T17:37:43.485Z,37.78
2022-12-23T17:40:29.203Z,38.00
2022-12-23T17:43:15.771Z,38.63
2022-12-23T17:46:01.366Z,34.13
2022-12-23T17:48:47.876Z,32.75
2022-12-23T17:51:34.295Z,29.25
2022-12-23T17:54:24.773Z,35.45
2022-12-23T17:57:26.716Z,28.30
2022-12-23T18:00:13.161Z,25.70
2022-12-23T18:02:58.828Z,23.25
2022-12-23T18:05:44.013Z,20.65
2022-12-23T18:08:29.372Z,20.05
2022-12-23T18:11:25.697Z,18.88
2022-12-23T18:14:27.807Z,18.05
2022-12-23T18:17:16.450Z,19.17
2022-12-23T18:20:03.175Z,18.00
2022-12-23T18:22:52.052Z,17.75
2022-12-23T18:25:37.543Z,16.40
2022-12-23T18:28:24.027Z,16.45
2022-12-23T18:31:23.908Z,18.13
2022-12-23T18:34:17.124Z,22.85
2022-12-23T18:37:02.286Z,30.23
2022-12-23T18:39:48.534Z,31.20
2022-12-23T18:42:34.178Z,34.00
2022-12-23T18:45:29.940Z,29.55
2022-12-23T18:48:15.085Z,27.63
2022-12-23T18:51:00.737Z,23.95
2022-12-23T18:53:47.463Z,29.42
2022-12-23T18:56:32.914Z,24.30
2022-12-23T18:59:27.484Z,18.83
2022-12-23T19:02:15.476Z,18.50
2022-12-23T19:05:01.096Z,14.52
2022-12-23T19:07:47.640Z,20.67
2022-12-23T19:10:33.967Z,16.67
2022-12-23T19:13:19.427Z,17.58
2022-12-23T19:16:05.078Z,20.75
2022-12-23T19:18:51.019Z,17.52
2022-12-23T19:21:36.382Z,15.45
2022-12-23T19:24:21.502Z,15.75
2022-12-23T19:27:06.861Z,17.63
2022-12-23T19:29:52.356Z,23.45
2022-12-23T19:32:37.824Z,20.20
2022-12-23T19:35:23.341Z,17.42
2022-12-23T19:38:08.947Z,19.52
2022-12-23T19:40:57.796Z,18.88
2022-12-23T19:43:44.682Z,17.05
2022-12-23T19:46:30.250Z,22.17
2022-12-23T19:49:19.876Z,32.88
2022-12-23T19:52:05.608Z,27.23
2022-12-23T19:54:53.255Z,31.23
2022-12-23T19:57:38.666Z,21.33
2022-12-23T20:00:23.767Z,37.63
2022-12-23T20:03:09.330Z,29.13
2022-12-23T20:05:54.734Z,35.92
2022-12-23T20:08:40.619Z,30.73
2022-12-23T20:11:26.223Z,33.47
2022-12-23T20:14:13.473Z,36.85
2022-12-23T20:16:58.773Z,34.63
2022-12-23T20:19:46.364Z,32.00
2022-12-23T20:22:32.256Z,27.73
2022-12-23T20:25:17.673Z,29.25
2022-12-23T20:28:03.015Z,28.95
2022-12-23T20:30:48.791Z,35.58
2022-12-23T20:33:35.917Z,29.13
2022-12-23T20:36:25.094Z,37.00
2022-12-23T20:39:10.207Z,37.30
2022-12-23T20:41:57.395Z,31.17
2022-12-23T20:44:42.354Z,34.92
2022-12-23T20:47:27.755Z,22.13
2022-12-23T20:50:13.243Z,29.35
2022-12-23T20:52:58.651Z,29.90
2022-12-23T20:55:44.313Z,30.45
2022-12-23T20:58:48.604Z,23.75
2022-12-23T21:01:38.147Z,17.90
2022-12-23T21:04:23.759Z,23.45
2022-12-23T21:07:09.438Z,25.65
2022-12-23T21:09:54.590Z,26.92
2022-12-23T21:12:40.151Z,24.30
2022-12-23T21:15:25.418Z,21.52
2022-12-23T21:18:10.896Z,32.70
2022-12-23T21:21:04.668Z,19.30
2022-12-23T21:23:50.397Z,26.67
2022-12-23T21:26:35.981Z,26.30
2022-12-23T21:29:21.642Z,17.38
2022-12-23T21:32:06.914Z,21.40
2022-12-23T21:34:52.411Z,23.35
2022-12-23T21:37:38.116Z,29.80
2022-12-23T21:40:23.550Z,25.10
2022-12-23T21:43:09.165Z,22.60
2022-12-23T21:46:03.480Z,33.78
2022-12-23T21:48:49.312Z,23.83
2022-12-23T21:51:40.244Z,31.90
2022-12-23T21:54:26.162Z,19.25
2022-12-23T21:57:11.713Z,25.20
2022-12-23T21:59:57.293Z,28.77
2022-12-23T22:02:42.827Z,19.88
2022-12-23T22:05:28.236Z,17.38
2022-12-23T22:08:13.814Z,20.77
2022-12-23T22:10:59.443Z,21.50
2022-12-23T22:13:45.508Z,20.40
2022-12-23T22:16:31.608Z,15.57
2022-12-23T22:19:17.528Z,21.95
2022-12-23T22:22:02.842Z,20.70
2022-12-23T22:24:48.416Z,25.88
2022-12-23T22:27:33.833Z,31.52
2022-12-23T22:30:19.392Z,33.03
2022-12-23T22:33:07.332Z,39.88
2022-12-23T22:35:56.854Z,34.55
2022-12-23T22:38:43.406Z,29.63
2022-12-23T22:41:29.763Z,41.08
2022-12-23T22:44:15.453Z,36.92
2022-12-23T22:47:01.053Z,28.88
2022-12-23T22:49:46.420Z,31.75
2022-12-23T22:52:31.902Z,43.90
2022-12-23T22:55:17.527Z,31.38
2022-12-23T22:58:03.084Z,33.35
2022-12-23T23:00:48.559Z,31.40
2022-12-23T23:03:34.128Z,34.80
2022-12-23T23:06:19.391Z,33.00
2022-12-23T23:09:12.759Z,30.65
2022-12-23T23:11:58.319Z,35.65
2022-12-23T23:14:52.456Z,33.58
2022-12-23T23:17:38.048Z,38.60
2022-12-23T23:20:23.670Z,35.45
2022-12-23T23:23:09.041Z,40.35
2022-12-23T23:25:54.337Z,37.40
2022-12-23T23:28:40.932Z,33.95
2022-12-23T23:31:43.176Z,38.05
2022-12-23T23:34:29.135Z,37.90
2022-12-23T23:37:15.685Z,34.42
2022-12-23T23:40:00.850Z,31.02
2022-12-23T23:42:46.134Z,44.97
2022-12-23T23:45:32.031Z,30.05
2022-12-23T23:48:17.675Z,27.10
2022-12-23T23:51:06.134Z,35.63
2022-12-23T23:53:51.858Z,39.65
2022-12-23T23:56:39.043Z,38.83
2022-12-23T23:59:24.938Z,29.85
